createdAt,value
2019-06-20T00:00:13.610Z,28.80
2019-06-20T00:02:44.451Z,28.90
2019-06-20T00:05:15.660Z,29.00
2019-06-20T00:07:46.743Z,29.10
2019-06-20T00:10:17.787Z,29.30
2019-06-20T00:12:59.842Z,29.40
2019-06-20T00:15:21.299Z,29.60
2019-06-20T00:17:52.238Z,29.80
2019-06-20T00:20:23.247Z,30.00
2019-06-20T00:22:54.272Z,30.10
2019-06-20T00:25:25.323Z,30.20
2019-06-20T00:27:56.265Z,30.50
2019-06-20T00:30:27.268Z,30.60
2019-06-20T00:32:58.203Z,30.70
2019-06-20T00:35:29.178Z,30.90
2019-06-20T00:38:02.870Z,31.10
2019-06-20T00:40:33.691Z,31.20
2019-06-20T00:43:17.001Z,31.40
2019-06-20T00:45:37.042Z,31.60
2019-06-20T00:48:07.947Z,31.80
2019-06-20T00:50:38.969Z,31.90
2019-06-20T00:53:09.948Z,32.10
2019-06-20T00:55:40.919Z,32.20
2019-06-20T00:58:12.165Z,32.40
2019-06-20T01:00:43.093Z,32.50
2019-06-20T01:03:13.928Z,32.70
2019-06-20T01:05:46.250Z,32.80
2019-06-20T01:08:16.956Z,32.90
2019-06-20T01:10:47.930Z,33.00
2019-06-20T01:13:32.533Z,33.10
2019-06-20T01:15:50.902Z,33.20
2019-06-20T01:18:21.795Z,33.30
2019-06-20T01:20:52.810Z,33.30
2019-06-20T01:23:23.705Z,33.40
2019-06-20T01:25:54.667Z,33.50
2019-06-20T01:28:25.507Z,33.60
2019-06-20T01:30:56.993Z,33.70
2019-06-20T01:33:27.893Z,33.70
2019-06-20T01:35:59.102Z,33.90
2019-06-20T01:38:30.056Z,33.90
2019-06-20T01:41:00.861Z,34.10
2019-06-20T01:43:31.855Z,34.20
2019-06-20T01:46:02.872Z,34.20
2019-06-20T01:48:33.653Z,34.30
2019-06-20T01:51:05.587Z,34.40
2019-06-20T01:53:36.381Z,34.50
2019-06-20T01:56:07.355Z,34.60
2019-06-20T01:58:39.285Z,34.60
2019-06-20T02:01:10.215Z,34.70
2019-06-20T02:03:41.071Z,34.80
2019-06-20T02:06:12.406Z,34.80
2019-06-20T02:08:43.308Z,34.90
2019-06-20T02:11:14.285Z,35.00
2019-06-20T02:13:47.922Z,35.10
2019-06-20T02:16:18.923Z,35.10
2019-06-20T02:18:49.637Z,35.20
2019-06-20T02:21:20.561Z,35.20
2019-06-20T02:23:52.560Z,35.30
2019-06-20T02:26:24.726Z,35.30
2019-06-20T02:28:55.709Z,35.40
2019-06-20T02:31:26.848Z,35.50
2019-06-20T02:33:58.742Z,35.50
2019-06-20T02:36:29.499Z,35.60
2019-06-20T02:39:00.295Z,35.70
2019-06-20T02:41:32.712Z,35.80
2019-06-20T02:44:03.487Z,35.80
2019-06-20T02:46:34.521Z,35.90
2019-06-20T02:49:06.819Z,36.00
2019-06-20T02:51:38.002Z,36.10
2019-06-20T02:54:09.064Z,36.10
2019-06-20T02:56:40.297Z,36.20
2019-06-20T02:59:11.264Z,36.20
2019-06-20T03:01:42.323Z,36.20
2019-06-20T03:04:14.470Z,36.20
2019-06-20T03:06:45.547Z,36.20
2019-06-20T03:09:16.451Z,36.20
2019-06-20T03:11:47.973Z,36.40
2019-06-20T03:14:18.911Z,36.50
2019-06-20T03:16:50.148Z,36.50
2019-06-20T03:19:21.725Z,36.60
2019-06-20T03:21:52.474Z,36.80
2019-06-20T03:24:25.273Z,36.80
2019-06-20T03:26:56.420Z,36.80
2019-06-20T03:29:27.393Z,36.80
2019-06-20T03:31:58.314Z,36.80
2019-06-20T03:34:30.874Z,36.90
2019-06-20T03:37:02.099Z,37.00
2019-06-20T03:39:32.904Z,37.10
2019-06-20T03:42:04.045Z,37.10
2019-06-20T03:44:34.867Z,37.30
2019-06-20T03:47:05.905Z,37.30
2019-06-20T03:49:36.978Z,37.40
2019-06-20T03:52:08.971Z,37.50
2019-06-20T03:54:40.179Z,37.50
2019-06-20T03:57:12.164Z,37.60
2019-06-20T03:59:43.063Z,37.70
2019-06-20T04:02:13.940Z,37.70
2019-06-20T04:04:45.047Z,37.70
2019-06-20T04:07:15.726Z,37.80
2019-06-20T04:09:46.712Z,37.90
2019-06-20T04:12:18.737Z,38.00
2019-06-20T04:14:49.594Z,38.10
2019-06-20T04:17:20.548Z,38.20
2019-06-20T04:19:51.730Z,38.10
2019-06-20T04:22:23.408Z,38.10
2019-06-20T04:24:54.322Z,38.20
2019-06-20T04:27:26.495Z,38.20
2019-06-20T04:29:57.341Z,38.20
2019-06-20T04:32:28.518Z,38.30
2019-06-20T04:34:59.563Z,38.40
2019-06-20T04:37:30.437Z,38.50
2019-06-20T04:40:01.404Z,38.50
2019-06-20T04:42:35.540Z,38.60
2019-06-20T04:45:09.024Z,38.70
2019-06-20T04:47:38.712Z,38.70
2019-06-20T04:50:08.097Z,38.80
2019-06-20T04:52:37.376Z,38.90
2019-06-20T04:55:07.312Z,39.00
2019-06-20T04:57:36.853Z,39.00
2019-06-20T05:00:06.249Z,39.00
2019-06-20T05:02:35.639Z,39.10
2019-06-20T05:05:05.009Z,39.30
2019-06-20T05:07:34.680Z,39.40
2019-06-20T05:10:04.418Z,39.40
2019-06-20T05:12:34.953Z,39.30
2019-06-20T05:15:04.451Z,39.30
2019-06-20T05:17:33.924Z,39.20
2019-06-20T05:20:03.413Z,39.10
2019-06-20T05:22:32.735Z,39.10
2019-06-20T05:25:02.335Z,39.00
2019-06-20T05:27:31.581Z,38.90
2019-06-20T05:30:01.135Z,38.90
2019-06-20T05:32:30.780Z,38.80
2019-06-20T05:35:02.973Z,38.80
2019-06-20T05:37:30.827Z,39.00
2019-06-20T05:40:00.648Z,39.00
2019-06-20T05:42:30.149Z,39.10
2019-06-20T05:44:59.833Z,39.20
2019-06-20T05:47:29.455Z,39.30
2019-06-20T05:49:59.479Z,39.40
2019-06-20T05:52:29.028Z,39.50
2019-06-20T05:54:58.732Z,39.60
2019-06-20T05:57:28.100Z,39.70
2019-06-20T06:00:00.941Z,39.70
2019-06-20T06:02:30.582Z,39.70
2019-06-20T06:05:00.315Z,39.80
2019-06-20T06:07:31.104Z,40.00
2019-06-20T06:10:03.982Z,40.00
2019-06-20T06:12:49.004Z,40.10
2019-06-20T06:15:03.107Z,40.10
2019-06-20T06:17:32.810Z,40.10
2019-06-20T06:20:02.389Z,40.10
2019-06-20T06:22:32.086Z,40.10
2019-06-20T06:25:01.633Z,40.20
2019-06-20T06:27:31.081Z,40.20
2019-06-20T06:30:01.134Z,40.20
2019-06-20T06:32:39.470Z,40.30
2019-06-20T06:35:01.945Z,40.30
2019-06-20T06:37:31.605Z,40.30
2019-06-20T06:40:01.091Z,40.40
2019-06-20T06:42:30.308Z,40.40
2019-06-20T06:45:00.211Z,40.40
2019-06-20T06:47:30.760Z,40.50
2019-06-20T06:50:00.223Z,40.50
2019-06-20T06:52:30.320Z,40.50
2019-06-20T06:54:59.724Z,40.60
2019-06-20T06:57:30.207Z,40.70
2019-06-20T07:00:00.409Z,40.80
2019-06-20T07:02:29.787Z,40.80
2019-06-20T07:04:59.404Z,40.80
2019-06-20T07:07:28.988Z,40.70
2019-06-20T07:09:58.392Z,40.70
2019-06-20T07:12:28.746Z,40.60
2019-06-20T07:14:58.191Z,40.40
2019-06-20T07:17:27.560Z,40.40
2019-06-20T07:19:57.186Z,40.40
2019-06-20T07:22:26.771Z,40.40
2019-06-20T07:24:56.424Z,40.40
2019-06-20T07:27:25.875Z,40.50
2019-06-20T07:29:56.049Z,40.40
2019-06-20T07:32:25.944Z,40.40
2019-06-20T07:34:57.134Z,40.50
2019-06-20T07:37:27.074Z,40.40
2019-06-20T07:39:56.501Z,40.40
2019-06-20T07:42:26.915Z,40.30
2019-06-20T07:44:56.816Z,40.30
2019-06-20T07:47:26.265Z,40.20
2019-06-20T07:49:55.721Z,40.10
2019-06-20T07:52:25.314Z,40.00
2019-06-20T07:54:54.779Z,40.00
2019-06-20T07:57:25.257Z,40.00
2019-06-20T07:59:54.962Z,40.00
2019-06-20T08:02:24.301Z,39.90
2019-06-20T08:04:53.633Z,39.90
2019-06-20T08:07:23.664Z,40.00
2019-06-20T08:09:52.965Z,40.10
2019-06-20T08:12:22.550Z,40.20
2019-06-20T08:14:52.263Z,40.30
2019-06-20T08:17:34.824Z,40.30
2019-06-20T08:19:53.514Z,40.30
2019-06-20T08:22:23.439Z,40.20
2019-06-20T08:24:53.691Z,40.20
2019-06-20T08:27:23.685Z,40.20
2019-06-20T08:29:53.825Z,40.20
2019-06-20T08:32:23.249Z,40.20
2019-06-20T08:34:52.859Z,40.20
2019-06-20T08:37:22.324Z,40.20
2019-06-20T08:39:51.850Z,40.30
2019-06-20T08:42:21.482Z,40.30
2019-06-20T08:44:51.152Z,40.30
2019-06-20T08:47:20.644Z,40.30
2019-06-20T08:49:49.949Z,40.30
2019-06-20T08:52:19.525Z,40.20
2019-06-20T08:54:48.971Z,40.20
2019-06-20T08:57:18.445Z,40.10
2019-06-20T08:59:48.116Z,40.10
2019-06-20T09:02:18.827Z,40.00
2019-06-20T09:04:48.573Z,40.00
2019-06-20T09:07:18.308Z,39.90
2019-06-20T09:09:47.762Z,39.90
2019-06-20T09:12:18.712Z,39.80
2019-06-20T09:14:48.534Z,39.80
2019-06-20T09:17:18.141Z,39.80
2019-06-20T09:19:47.864Z,39.70
2019-06-20T09:22:17.564Z,39.70
2019-06-20T09:24:46.935Z,39.70
2019-06-20T09:27:16.602Z,39.80
2019-06-20T09:29:46.601Z,39.70
2019-06-20T09:32:16.041Z,39.70
2019-06-20T09:34:46.297Z,39.70
2019-06-20T09:37:16.130Z,39.60
2019-06-20T09:39:45.724Z,39.50
2019-06-20T09:42:15.190Z,39.40
2019-06-20T09:44:44.802Z,39.40
2019-06-20T09:47:14.309Z,39.30
2019-06-20T09:49:43.911Z,39.10
2019-06-20T09:52:13.705Z,39.00
2019-06-20T09:54:43.064Z,38.90
2019-06-20T09:57:12.645Z,38.90
2019-06-20T09:59:56.145Z,38.80
2019-06-20T10:02:13.277Z,38.70
2019-06-20T10:04:43.726Z,38.60
2019-06-20T10:07:13.539Z,38.50
2019-06-20T10:09:43.024Z,38.50
2019-06-20T10:12:12.543Z,38.40
2019-06-20T10:14:42.375Z,38.30
2019-06-20T10:17:11.886Z,38.30
2019-06-20T10:19:41.354Z,38.20
2019-06-20T10:22:10.779Z,38.20
2019-06-20T10:24:40.240Z,38.20
2019-06-20T10:27:09.947Z,38.10
2019-06-20T10:29:39.539Z,38.00
2019-06-20T10:32:09.069Z,38.00
2019-06-20T10:34:39.528Z,37.90
2019-06-20T10:37:09.374Z,37.90
2019-06-20T10:39:39.004Z,37.80
2019-06-20T10:42:08.469Z,37.70
2019-06-20T10:44:41.069Z,37.70
2019-06-20T10:47:13.123Z,37.70
2019-06-20T10:49:44.710Z,37.60
2019-06-20T10:52:14.430Z,37.60
2019-06-20T10:54:44.853Z,37.60
2019-06-20T10:57:14.598Z,37.50
2019-06-20T10:59:44.261Z,37.50
2019-06-20T11:02:13.959Z,37.40
2019-06-20T11:04:44.107Z,37.40
2019-06-20T11:07:13.645Z,37.30
2019-06-20T11:09:43.503Z,37.30
2019-06-20T11:12:13.153Z,37.10
2019-06-20T11:14:44.122Z,37.10
2019-06-20T11:17:13.691Z,36.90
2019-06-20T11:19:43.770Z,36.80
2019-06-20T11:22:13.417Z,36.80
2019-06-20T11:24:43.068Z,36.70
2019-06-20T11:27:13.306Z,36.60
2019-06-20T11:29:44.063Z,36.50
2019-06-20T11:32:13.690Z,36.40
2019-06-20T11:34:44.746Z,36.30
2019-06-20T11:37:14.399Z,36.20
2019-06-20T11:39:47.453Z,36.20
2019-06-20T11:42:16.430Z,36.10
2019-06-20T11:44:47.455Z,36.00
2019-06-20T11:47:16.929Z,35.90
2019-06-20T11:49:46.998Z,35.80
2019-06-20T11:52:16.605Z,35.80
2019-06-20T11:54:46.204Z,35.70
2019-06-20T11:57:16.033Z,35.70
2019-06-20T11:59:45.490Z,35.70
2019-06-20T12:02:15.007Z,35.60
2019-06-20T12:04:45.278Z,35.60
2019-06-20T12:07:14.630Z,35.50
2019-06-20T12:09:44.236Z,35.50
2019-06-20T12:12:14.296Z,35.40
2019-06-20T12:14:44.285Z,35.40
2019-06-20T12:17:13.763Z,35.40
2019-06-20T12:19:44.680Z,35.40
2019-06-20T12:22:14.161Z,35.30
2019-06-20T12:24:44.516Z,35.30
2019-06-20T12:27:14.269Z,35.30
2019-06-20T12:29:44.379Z,35.30
2019-06-20T12:32:14.019Z,35.30
2019-06-20T12:34:44.549Z,35.20
2019-06-20T12:37:14.020Z,35.10
2019-06-20T12:39:44.564Z,35.10
2019-06-20T12:42:14.245Z,35.00
2019-06-20T12:44:45.931Z,35.00
2019-06-20T12:47:15.548Z,34.90
2019-06-20T12:49:45.862Z,34.90
2019-06-20T12:52:15.375Z,34.80
2019-06-20T12:54:46.833Z,34.80
2019-06-20T12:57:16.565Z,34.80
2019-06-20T12:59:46.342Z,34.80
2019-06-20T13:02:17.536Z,34.60
2019-06-20T13:04:47.246Z,34.60
2019-06-20T13:07:16.924Z,34.60
2019-06-20T13:09:46.457Z,34.50
2019-06-20T13:12:16.069Z,34.50
2019-06-20T13:14:49.637Z,34.50
2019-06-20T13:17:19.634Z,34.40
2019-06-20T13:19:49.057Z,34.30
2019-06-20T13:22:18.514Z,34.30
2019-06-20T13:24:49.420Z,34.20
2019-06-20T13:27:19.097Z,34.20
2019-06-20T13:29:49.469Z,34.10
2019-06-20T13:32:19.265Z,34.10
2019-06-20T13:34:48.948Z,34.00
2019-06-20T13:37:18.871Z,34.00
2019-06-20T13:39:50.177Z,33.90
2019-06-20T13:42:19.849Z,33.90
2019-06-20T13:44:49.305Z,33.90
2019-06-20T13:47:19.216Z,33.80
2019-06-20T13:49:50.026Z,33.80
2019-06-20T13:52:19.517Z,33.70
2019-06-20T13:54:49.911Z,33.70
2019-06-20T13:57:19.496Z,33.60
2019-06-20T13:59:52.448Z,33.60
2019-06-20T14:02:19.919Z,33.50
2019-06-20T14:04:50.648Z,33.50
2019-06-20T14:07:20.235Z,33.40
2019-06-20T14:09:51.148Z,33.40
2019-06-20T14:12:20.729Z,33.30
2019-06-20T14:14:50.339Z,33.30
2019-06-20T14:17:19.930Z,33.30
2019-06-20T14:19:49.589Z,33.30
2019-06-20T14:22:19.075Z,33.30
2019-06-20T14:24:48.640Z,33.20
2019-06-20T14:27:18.081Z,33.20
2019-06-20T14:29:49.028Z,33.20
2019-06-20T14:32:22.223Z,33.10
2019-06-20T14:34:50.348Z,33.10
2019-06-20T14:37:19.722Z,33.00
2019-06-20T14:39:50.955Z,33.00
2019-06-20T14:42:20.304Z,33.00
2019-06-20T14:44:49.855Z,32.90
2019-06-20T14:47:19.642Z,32.90
2019-06-20T14:49:50.870Z,32.80
2019-06-20T14:52:20.243Z,32.80
2019-06-20T14:54:51.745Z,32.80
2019-06-20T14:57:21.289Z,32.70
2019-06-20T14:59:52.562Z,32.70
2019-06-20T15:02:37.231Z,32.70
2019-06-20T15:04:52.575Z,32.60
2019-06-20T15:07:22.225Z,32.60
2019-06-20T15:09:53.246Z,32.50
2019-06-20T15:12:22.645Z,32.50
2019-06-20T15:14:53.362Z,32.50
2019-06-20T15:17:25.868Z,32.50
2019-06-20T15:19:56.172Z,32.50
2019-06-20T15:22:26.844Z,32.40
2019-06-20T15:24:57.202Z,32.40
2019-06-20T15:27:26.859Z,32.40
2019-06-20T15:29:56.587Z,32.40
2019-06-20T15:32:29.495Z,32.40
2019-06-20T15:35:01.701Z,32.40
2019-06-20T15:37:29.997Z,32.30
2019-06-20T15:39:59.501Z,32.30
2019-06-20T15:42:28.902Z,32.20
2019-06-20T15:44:58.760Z,32.30
2019-06-20T15:47:28.155Z,32.20
2019-06-20T15:49:57.715Z,32.20
2019-06-20T15:52:27.300Z,32.20
2019-06-20T15:54:56.749Z,32.20
2019-06-20T15:57:26.145Z,32.00
2019-06-20T15:59:55.922Z,32.00
2019-06-20T16:02:25.308Z,32.00
2019-06-20T16:04:54.749Z,31.90
2019-06-20T16:07:24.382Z,32.00
2019-06-20T16:09:53.712Z,31.90
2019-06-20T16:12:23.058Z,31.80
2019-06-20T16:14:58.208Z,31.80
2019-06-20T16:17:27.833Z,31.80
2019-06-20T16:19:57.492Z,31.80
2019-06-20T16:22:27.111Z,31.80
2019-06-20T16:24:56.527Z,31.80
2019-06-20T16:27:26.689Z,31.70
2019-06-20T16:29:56.163Z,31.70
2019-06-20T16:32:25.617Z,31.70
2019-06-20T16:34:55.293Z,31.60
2019-06-20T16:37:24.774Z,31.60
2019-06-20T16:39:54.128Z,31.60
2019-06-20T16:42:23.782Z,31.60
2019-06-20T16:44:53.056Z,31.50
2019-06-20T16:47:22.685Z,31.60
2019-06-20T16:49:52.234Z,31.50
2019-06-20T16:52:21.716Z,31.50
2019-06-20T16:54:51.272Z,31.50
2019-06-20T16:57:20.856Z,31.50
2019-06-20T16:59:50.387Z,31.50
2019-06-20T17:02:19.823Z,31.40
2019-06-20T17:04:49.413Z,31.40
2019-06-20T17:07:18.646Z,31.40
2019-06-20T17:09:48.239Z,31.40
2019-06-20T17:12:18.012Z,31.40
2019-06-20T17:14:47.500Z,31.30
2019-06-20T17:17:17.153Z,31.30
2019-06-20T17:19:46.755Z,31.30
2019-06-20T17:22:17.484Z,31.20
2019-06-20T17:24:48.651Z,31.20
2019-06-20T17:27:18.548Z,31.20
2019-06-20T17:29:48.049Z,31.20
2019-06-20T17:32:17.556Z,31.20
2019-06-20T17:34:47.004Z,31.10
2019-06-20T17:37:16.611Z,31.10
2019-06-20T17:39:46.514Z,31.10
2019-06-20T17:42:16.173Z,31.10
2019-06-20T17:44:51.620Z,31.10
2019-06-20T17:47:22.058Z,31.00
2019-06-20T17:49:51.851Z,31.00
2019-06-20T17:52:21.511Z,31.00
2019-06-20T17:54:50.975Z,31.00
2019-06-20T17:57:20.569Z,30.90
2019-06-20T17:59:53.269Z,30.90
2019-06-20T18:02:22.833Z,30.90
2019-06-20T18:04:53.375Z,30.80
2019-06-20T18:07:24.340Z,30.80
2019-06-20T18:09:53.957Z,30.80
2019-06-20T18:12:23.521Z,30.80
2019-06-20T18:14:52.878Z,30.70
2019-06-20T18:17:22.381Z,30.70
2019-06-20T18:19:52.401Z,30.70
2019-06-20T18:22:22.213Z,30.70
2019-06-20T18:24:51.709Z,30.70
2019-06-20T18:27:21.628Z,30.70
2019-06-20T18:29:50.955Z,30.60
2019-06-20T18:32:20.380Z,30.60
2019-06-20T18:35:01.560Z,30.60
2019-06-20T18:37:31.451Z,30.50
2019-06-20T18:39:54.867Z,30.50
2019-06-20T18:42:24.494Z,30.50
2019-06-20T18:44:54.053Z,30.40
2019-06-20T18:47:23.747Z,30.50
2019-06-20T18:49:56.255Z,30.40
2019-06-20T18:52:25.612Z,30.40
2019-06-20T18:54:55.589Z,30.40
2019-06-20T18:57:25.223Z,30.40
2019-06-20T18:59:54.609Z,30.30
2019-06-20T19:02:24.231Z,30.30
2019-06-20T19:04:53.701Z,30.30
2019-06-20T19:07:23.262Z,30.20
2019-06-20T19:09:52.911Z,30.20
2019-06-20T19:12:22.550Z,30.20
2019-06-20T19:14:51.986Z,30.20
2019-06-20T19:17:21.754Z,30.20
2019-06-20T19:19:51.473Z,30.20
2019-06-20T19:22:21.296Z,30.20
2019-06-20T19:24:50.654Z,30.20
2019-06-20T19:27:20.306Z,30.20
2019-06-20T19:29:50.243Z,30.10
2019-06-20T19:32:19.792Z,30.10
2019-06-20T19:35:01.436Z,30.10
2019-06-20T19:37:20.434Z,30.10
2019-06-20T19:39:50.981Z,30.10
2019-06-20T19:42:20.734Z,30.00
2019-06-20T19:44:51.468Z,30.00
2019-06-20T19:47:20.814Z,30.00
2019-06-20T19:49:50.355Z,30.00
2019-06-20T19:52:19.997Z,30.00
2019-06-20T19:54:52.164Z,30.00
2019-06-20T19:57:21.487Z,30.00
2019-06-20T19:59:51.146Z,29.90
2019-06-20T20:02:20.627Z,29.90
2019-06-20T20:04:50.373Z,29.90
2019-06-20T20:07:19.885Z,29.90
2019-06-20T20:09:49.562Z,29.90
2019-06-20T20:12:19.052Z,29.90
2019-06-20T20:14:48.726Z,29.90
2019-06-20T20:17:18.124Z,29.80
2019-06-20T20:19:47.642Z,29.80
2019-06-20T20:22:17.221Z,29.80
2019-06-20T20:24:46.749Z,29.80
2019-06-20T20:27:16.717Z,29.80
2019-06-20T20:29:48.709Z,29.80
2019-06-20T20:32:18.262Z,29.70
2019-06-20T20:34:48.820Z,29.80
2019-06-20T20:37:19.271Z,29.70
2019-06-20T20:39:48.691Z,29.80
2019-06-20T20:42:18.228Z,29.70
2019-06-20T20:44:47.862Z,29.70
2019-06-20T20:47:17.233Z,29.70
2019-06-20T20:49:46.800Z,29.70
2019-06-20T20:52:16.507Z,29.70
2019-06-20T20:54:45.851Z,29.60
2019-06-20T20:57:15.211Z,29.60
2019-06-20T20:59:44.946Z,29.60
2019-06-20T21:02:14.312Z,29.60
2019-06-20T21:04:43.775Z,29.60
2019-06-20T21:07:13.365Z,29.60
2019-06-20T21:09:42.598Z,29.60
2019-06-20T21:12:12.519Z,29.50
2019-06-20T21:14:42.343Z,29.50
2019-06-20T21:17:11.782Z,29.50
2019-06-20T21:19:41.122Z,29.50
2019-06-20T21:22:10.657Z,29.50
2019-06-20T21:24:40.195Z,29.50
2019-06-20T21:27:09.948Z,29.50
2019-06-20T21:29:40.569Z,29.50
2019-06-20T21:32:10.073Z,29.40
2019-06-20T21:34:39.700Z,29.50
2019-06-20T21:37:09.226Z,29.40
2019-06-20T21:39:38.873Z,29.40
2019-06-20T21:42:08.575Z,29.40
2019-06-20T21:44:38.181Z,29.40
2019-06-20T21:47:07.668Z,29.40
2019-06-20T21:49:37.281Z,29.30
2019-06-20T21:52:06.785Z,29.30
2019-06-20T21:54:37.687Z,29.30
2019-06-20T21:57:07.282Z,29.30
2019-06-20T21:59:36.970Z,29.30
2019-06-20T22:02:06.212Z,29.30
2019-06-20T22:04:35.531Z,29.30
2019-06-20T22:07:05.323Z,29.30
2019-06-20T22:09:35.017Z,29.30
2019-06-20T22:12:04.429Z,29.30
2019-06-20T22:14:34.097Z,29.30
2019-06-20T22:17:03.495Z,29.30
2019-06-20T22:19:32.887Z,29.30
2019-06-20T22:22:02.511Z,29.30
2019-06-20T22:24:31.946Z,29.30
2019-06-20T22:27:01.291Z,29.30
2019-06-20T22:29:30.796Z,29.30
2019-06-20T22:32:00.548Z,29.30
2019-06-20T22:34:29.940Z,29.30
2019-06-20T22:36:59.621Z,29.30
2019-06-20T22:39:29.877Z,29.20
2019-06-20T22:41:59.264Z,29.20
2019-06-20T22:44:29.176Z,29.20
2019-06-20T22:46:58.475Z,29.20
2019-06-20T22:49:27.896Z,29.20
2019-06-20T22:51:57.473Z,29.20
2019-06-20T22:54:27.115Z,29.20
2019-06-20T22:56:56.400Z,29.20
2019-06-20T22:59:26.279Z,29.10
2019-06-20T23:01:55.816Z,29.10
2019-06-20T23:04:25.204Z,29.10
2019-06-20T23:06:56.688Z,29.10
2019-06-20T23:09:27.442Z,29.10
2019-06-20T23:11:56.532Z,29.10
2019-06-20T23:14:26.367Z,29.10
2019-06-20T23:16:55.820Z,29.10
2019-06-20T23:19:25.369Z,29.10
2019-06-20T23:21:54.932Z,29.10
2019-06-20T23:24:24.682Z,29.10
2019-06-20T23:26:54.242Z,29.10
2019-06-20T23:29:24.217Z,29.20
2019-06-20T23:31:53.766Z,29.20
2019-06-20T23:34:23.372Z,29.20
2019-06-20T23:36:52.950Z,29.30
2019-06-20T23:39:22.484Z,29.30
2019-06-20T23:41:51.917Z,29.40
2019-06-20T23:44:21.467Z,29.40
2019-06-20T23:46:50.875Z,29.50
2019-06-20T23:49:20.311Z,29.60
2019-06-20T23:51:49.854Z,29.70
2019-06-20T23:54:19.401Z,29.80
2019-06-20T23:56:49.255Z,29.90
2019-06-20T23:59:18.837Z,30.00
